createdAt,value
2018-10-06T00:01:31.437Z,100.00
2018-10-06T00:03:59.829Z,100.00
2018-10-06T00:06:28.302Z,100.00
2018-10-06T00:08:56.890Z,100.00
2018-10-06T00:11:25.369Z,100.00
2018-10-06T00:13:54.006Z,100.00
2018-10-06T00:16:22.518Z,100.00
2018-10-06T00:18:51.013Z,100.00
2018-10-06T00:21:19.518Z,100.00
2018-10-06T00:23:47.902Z,100.00
2018-10-06T00:26:16.395Z,100.00
2018-10-06T00:28:44.790Z,100.00
2018-10-06T00:31:13.321Z,100.00
2018-10-06T00:33:41.757Z,100.00
2018-10-06T00:36:10.173Z,100.00
2018-10-06T00:38:38.581Z,100.00
2018-10-06T00:41:07.055Z,100.00
2018-10-06T00:43:35.482Z,100.00
2018-10-06T00:46:03.991Z,100.00
2018-10-06T00:48:32.430Z,100.00
2018-10-06T00:51:00.852Z,100.00
2018-10-06T00:53:29.245Z,100.00
2018-10-06T00:55:57.707Z,100.00
2018-10-06T00:58:26.189Z,100.00
2018-10-06T01:00:54.586Z,100.00
2018-10-06T01:03:23.071Z,100.00
2018-10-06T01:05:51.489Z,100.00
2018-10-06T01:08:19.934Z,100.00
2018-10-06T01:10:48.371Z,100.00
2018-10-06T01:13:16.788Z,100.00
2018-10-06T01:15:45.218Z,100.00
2018-10-06T01:18:13.649Z,100.00
2018-10-06T01:20:42.054Z,100.00
2018-10-06T01:23:10.513Z,100.00
2018-10-06T01:25:38.909Z,100.00
2018-10-06T01:28:07.297Z,100.00
2018-10-06T01:30:36.236Z,100.00
2018-10-06T01:33:05.088Z,100.00
2018-10-06T01:35:33.922Z,100.00
2018-10-06T01:41:11.000Z,100.00
2018-10-06T01:43:39.856Z,100.00
2018-10-06T01:46:30.069Z,100.00
2018-10-06T01:48:58.975Z,100.00
2018-10-06T01:51:31.481Z,100.00
2018-10-06T01:54:00.444Z,100.00
2018-10-06T01:56:32.749Z,100.00
2018-10-06T01:59:01.592Z,100.00
2018-10-06T02:01:32.124Z,100.00
2018-10-06T02:05:09.372Z,100.00
2018-10-06T02:07:38.140Z,100.00
2018-10-06T02:10:07.082Z,100.00
2018-10-06T02:21:22.998Z,100.00
2018-10-06T02:23:51.666Z,100.00
2018-10-06T02:26:20.268Z,100.00
2018-10-06T02:28:48.813Z,100.00
2018-10-06T02:31:17.260Z,100.00
2018-10-06T02:33:45.640Z,100.00
2018-10-06T02:36:14.053Z,100.00
2018-10-06T02:38:42.506Z,100.00
2018-10-06T02:41:10.901Z,100.00
2018-10-06T02:43:39.354Z,100.00
2018-10-06T02:46:07.766Z,100.00
2018-10-06T02:48:36.214Z,100.00
2018-10-06T02:51:04.908Z,100.00
2018-10-06T02:53:33.305Z,100.00
2018-10-06T02:56:01.723Z,100.00
2018-10-06T02:58:30.185Z,100.00
2018-10-06T03:00:58.621Z,100.00
2018-10-06T03:03:27.026Z,100.00
2018-10-06T03:05:55.438Z,100.00
2018-10-06T03:08:23.957Z,100.00
2018-10-06T03:10:52.361Z,100.00
2018-10-06T03:13:20.775Z,100.00
2018-10-06T03:15:49.218Z,100.00
2018-10-06T03:18:17.671Z,100.00
2018-10-06T03:20:46.110Z,100.00
2018-10-06T03:23:14.489Z,100.00
2018-10-06T03:25:42.927Z,100.00
2018-10-06T03:28:11.316Z,100.00
2018-10-06T03:30:39.762Z,100.00
2018-10-06T03:33:08.229Z,100.00
2018-10-06T03:35:36.626Z,100.00
2018-10-06T03:38:05.054Z,100.00
2018-10-06T03:40:33.511Z,100.00
2018-10-06T03:43:02.032Z,100.00
2018-10-06T03:45:30.502Z,100.00
2018-10-06T03:47:58.963Z,100.00
2018-10-06T03:50:27.655Z,100.00
2018-10-06T03:52:56.198Z,100.00
2018-10-06T03:55:24.689Z,100.00
2018-10-06T03:57:53.134Z,100.00
2018-10-06T04:00:21.570Z,100.00
2018-10-06T04:02:50.005Z,100.00
2018-10-06T04:05:18.426Z,100.00
2018-10-06T04:07:46.859Z,100.00
2018-10-06T04:10:15.328Z,100.00
2018-10-06T04:12:43.818Z,100.00
2018-10-06T04:15:12.266Z,100.00
2018-10-06T04:17:40.684Z,100.00
2018-10-06T04:20:09.114Z,100.00
2018-10-06T04:22:37.497Z,100.00
2018-10-06T04:25:06.182Z,100.00
2018-10-06T04:27:34.566Z,100.00
2018-10-06T04:30:03.045Z,100.00
2018-10-06T04:32:31.457Z,100.00
2018-10-06T04:34:59.926Z,100.00
2018-10-06T04:37:28.341Z,100.00
2018-10-06T04:39:56.778Z,100.00
2018-10-06T04:42:25.243Z,100.00
2018-10-06T04:44:53.649Z,100.00
2018-10-06T04:47:22.113Z,100.00
2018-10-06T04:49:50.537Z,100.00
2018-10-06T04:52:18.946Z,100.00
2018-10-06T04:54:47.402Z,100.00
2018-10-06T04:57:15.850Z,100.00
2018-10-06T04:59:44.269Z,100.00
2018-10-06T05:02:15.757Z,100.00
2018-10-06T05:04:44.501Z,100.00
2018-10-06T05:07:12.909Z,100.00
2018-10-06T05:09:41.316Z,100.00
2018-10-06T05:12:09.926Z,100.00
2018-10-06T05:14:38.353Z,100.00
2018-10-06T05:17:06.789Z,100.00
2018-10-06T05:19:35.205Z,100.00
2018-10-06T05:22:03.598Z,100.00
2018-10-06T05:24:32.012Z,100.00
2018-10-06T05:27:00.402Z,100.00
2018-10-06T05:29:28.895Z,100.00
2018-10-06T05:31:57.273Z,100.00
2018-10-06T05:34:25.664Z,100.00
2018-10-06T05:36:54.089Z,100.00
2018-10-06T05:39:22.496Z,100.00
2018-10-06T05:41:50.886Z,100.00
2018-10-06T05:44:19.339Z,100.00
2018-10-06T05:46:47.716Z,100.00
2018-10-06T05:49:16.157Z,100.00
2018-10-06T05:51:44.562Z,100.00
2018-10-06T05:54:12.989Z,100.00
2018-10-06T05:56:41.394Z,100.00
2018-10-06T05:59:09.804Z,100.00
2018-10-06T06:01:38.224Z,100.00
2018-10-06T06:04:06.609Z,100.00
2018-10-06T06:06:35.018Z,100.00
2018-10-06T06:09:03.790Z,100.00
2018-10-06T06:11:32.227Z,100.00
2018-10-06T06:14:00.614Z,100.00
2018-10-06T06:16:29.113Z,100.00
2018-10-06T06:18:57.529Z,100.00
2018-10-06T06:21:25.910Z,100.00
2018-10-06T06:23:54.349Z,100.00
2018-10-06T06:26:22.777Z,100.00
2018-10-06T06:28:51.180Z,100.00
2018-10-06T06:31:19.737Z,100.00
2018-10-06T06:33:48.148Z,100.00
2018-10-06T06:36:16.619Z,100.00
2018-10-06T06:38:45.121Z,100.00
2018-10-06T06:41:13.574Z,100.00
2018-10-06T06:43:42.101Z,100.00
2018-10-06T06:46:10.602Z,100.00
2018-10-06T06:48:39.029Z,100.00
2018-10-06T06:51:07.513Z,100.00
2018-10-06T06:53:35.909Z,100.00
2018-10-06T06:56:04.347Z,100.00
2018-10-06T06:58:32.753Z,100.00
2018-10-06T07:01:01.239Z,100.00
2018-10-06T07:03:29.626Z,100.00
2018-10-06T07:05:58.065Z,100.00
2018-10-06T07:08:26.460Z,100.00
2018-10-06T07:10:54.868Z,100.00
2018-10-06T07:13:23.294Z,100.00
2018-10-06T07:15:51.744Z,100.00
2018-10-06T07:18:20.186Z,100.00
2018-10-06T07:20:48.729Z,100.00
2018-10-06T07:23:17.128Z,100.00
2018-10-06T07:25:46.822Z,100.00
2018-10-06T07:28:15.233Z,100.00
2018-10-06T07:30:43.617Z,100.00
2018-10-06T07:33:12.026Z,100.00
2018-10-06T07:35:40.466Z,100.00
2018-10-06T07:38:08.910Z,100.00
2018-10-06T07:40:37.385Z,100.00
2018-10-06T07:43:05.866Z,100.00
2018-10-06T07:45:34.302Z,100.00
2018-10-06T07:48:02.807Z,100.00
2018-10-06T07:50:31.413Z,100.00
2018-10-06T07:52:59.972Z,100.00
2018-10-06T07:55:28.432Z,100.00
2018-10-06T07:57:57.006Z,100.00
2018-10-06T08:00:25.483Z,100.00
2018-10-06T08:02:54.019Z,100.00
2018-10-06T08:05:22.429Z,100.00
2018-10-06T08:07:50.967Z,100.00
2018-10-06T08:10:19.386Z,100.00
2018-10-06T08:12:47.822Z,100.00
2018-10-06T08:15:16.303Z,100.00
2018-10-06T08:17:44.841Z,100.00
2018-10-06T08:20:13.297Z,100.00
2018-10-06T08:22:41.757Z,100.00
2018-10-06T08:25:10.208Z,100.00
2018-10-06T08:27:38.621Z,100.00
2018-10-06T08:30:07.038Z,100.00
2018-10-06T08:32:35.497Z,100.00
2018-10-06T08:35:03.903Z,100.00
2018-10-06T08:37:32.396Z,100.00
2018-10-06T08:40:00.798Z,100.00
2018-10-06T08:42:29.239Z,100.00
2018-10-06T08:44:57.622Z,100.00
2018-10-06T08:47:26.041Z,100.00
2018-10-06T08:49:54.513Z,100.00
2018-10-06T08:52:22.969Z,100.00
2018-10-06T08:54:51.414Z,100.00
2018-10-06T08:57:19.856Z,100.00
2018-10-06T08:59:48.278Z,100.00
2018-10-06T09:02:16.824Z,100.00
2018-10-06T09:04:45.193Z,100.00
2018-10-06T09:07:13.645Z,100.00
2018-10-06T09:09:42.159Z,100.00
2018-10-06T09:12:10.682Z,100.00
2018-10-06T09:14:39.136Z,100.00
2018-10-06T09:17:07.750Z,100.00
2018-10-06T09:19:36.142Z,100.00
2018-10-06T09:22:04.574Z,100.00
2018-10-06T09:24:33.012Z,100.00
2018-10-06T09:27:01.410Z,100.00
2018-10-06T09:29:29.821Z,99.38
2018-10-06T09:31:58.269Z,96.00
2018-10-06T09:34:27.837Z,95.67
2018-10-06T09:36:56.553Z,96.31
2018-10-06T09:39:25.384Z,98.87
2018-10-06T09:41:54.143Z,96.40
2018-10-06T09:44:22.648Z,89.81
2018-10-06T09:46:51.170Z,86.28
2018-10-06T09:49:19.789Z,84.44
2018-10-06T09:51:48.458Z,85.26
2018-10-06T09:54:17.093Z,85.40
2018-10-06T09:56:45.858Z,79.76
2018-10-06T09:59:14.380Z,80.79
2018-10-06T10:01:48.320Z,80.32
2018-10-06T10:04:17.802Z,79.78
2018-10-06T10:06:46.411Z,79.34
2018-10-06T10:09:16.327Z,76.69
2018-10-06T10:11:44.839Z,79.42
2018-10-06T10:14:13.320Z,78.17
2018-10-06T10:16:41.751Z,75.75
2018-10-06T10:19:10.383Z,80.99
2018-10-06T10:21:39.036Z,79.89
2018-10-06T10:24:07.587Z,80.57
2018-10-06T10:26:36.089Z,79.35
2018-10-06T10:29:04.650Z,77.19
2018-10-06T10:31:33.224Z,81.77
2018-10-06T10:34:01.798Z,77.94
2018-10-06T10:36:30.218Z,81.76
2018-10-06T10:38:58.798Z,73.70
2018-10-06T10:41:27.529Z,76.36
2018-10-06T10:43:57.573Z,72.17
2018-10-06T10:46:25.971Z,71.59
2018-10-06T10:48:54.428Z,73.15
2018-10-06T10:51:23.007Z,75.72
2018-10-06T10:53:52.422Z,75.00
2018-10-06T10:56:21.128Z,73.24
2018-10-06T10:58:49.785Z,70.98
2018-10-06T11:01:18.268Z,65.12
2018-10-06T11:03:48.476Z,62.08
2018-10-06T11:06:16.990Z,61.04
2018-10-06T11:08:45.392Z,58.56
2018-10-06T11:11:13.892Z,58.64
2018-10-06T11:13:42.256Z,58.96
2018-10-06T11:16:14.122Z,58.39
2018-10-06T11:18:42.637Z,56.09
2018-10-06T11:21:11.033Z,55.07
2018-10-06T11:23:42.933Z,54.38
2018-10-06T11:26:28.350Z,53.84
2018-10-06T11:28:56.808Z,52.99
2018-10-06T11:31:25.458Z,53.79
2018-10-06T11:33:54.125Z,53.02
2018-10-06T11:36:22.594Z,53.38
2018-10-06T11:38:51.024Z,55.02
2018-10-06T11:41:19.407Z,53.34
2018-10-06T11:43:47.803Z,54.06
2018-10-06T11:46:16.654Z,55.78
2018-10-06T11:48:45.129Z,55.07
2018-10-06T11:51:13.584Z,55.55
2018-10-06T11:53:42.004Z,54.70
2018-10-06T11:56:10.394Z,54.66
2018-10-06T11:58:38.788Z,54.47
2018-10-06T12:01:07.217Z,54.72
2018-10-06T12:03:35.645Z,53.23
2018-10-06T12:06:04.070Z,54.97
2018-10-06T12:08:32.502Z,55.00
2018-10-06T12:11:01.022Z,53.08
2018-10-06T12:13:29.513Z,53.05
2018-10-06T12:15:57.945Z,53.16
2018-10-06T12:18:26.386Z,52.43
2018-10-06T12:20:55.025Z,51.62
2018-10-06T12:23:23.629Z,52.20
2018-10-06T12:25:52.123Z,51.86
2018-10-06T12:28:20.502Z,51.99
2018-10-06T12:30:48.951Z,52.11
2018-10-06T12:33:17.681Z,52.01
2018-10-06T12:35:46.359Z,51.54
2018-10-06T12:38:14.726Z,52.28
2018-10-06T12:40:43.167Z,51.56
2018-10-06T12:43:11.591Z,52.74
2018-10-06T12:45:41.857Z,51.58
2018-10-06T12:48:10.255Z,51.04
2018-10-06T12:50:38.707Z,51.67
2018-10-06T12:53:07.085Z,50.64
2018-10-06T12:55:35.565Z,50.43
2018-10-06T12:58:04.002Z,50.93
2018-10-06T13:00:32.456Z,49.84
2018-10-06T13:03:00.882Z,49.49
2018-10-06T13:05:29.350Z,50.26
2018-10-06T13:07:57.813Z,48.78
2018-10-06T13:10:26.253Z,45.64
2018-10-06T13:12:54.666Z,42.96
2018-10-06T13:15:23.118Z,42.89
2018-10-06T13:17:51.632Z,43.34
2018-10-06T13:20:20.038Z,42.60
2018-10-06T13:22:48.566Z,42.88
2018-10-06T13:25:16.985Z,40.75
2018-10-06T13:27:45.437Z,39.89
2018-10-06T13:30:13.917Z,40.52
2018-10-06T13:32:42.356Z,39.46
2018-10-06T13:35:11.626Z,40.27
2018-10-06T13:37:40.089Z,42.33
2018-10-06T13:40:08.566Z,42.17
2018-10-06T13:42:37.004Z,42.23
2018-10-06T13:45:05.688Z,42.90
2018-10-06T13:47:34.081Z,41.38
2018-10-06T13:50:02.845Z,42.06
2018-10-06T13:52:31.294Z,41.17
2018-10-06T13:54:59.747Z,42.29
2018-10-06T13:57:28.248Z,44.03
2018-10-06T13:59:56.954Z,46.51
2018-10-06T14:02:25.992Z,46.32
2018-10-06T14:04:54.390Z,45.37
2018-10-06T14:07:22.798Z,45.48
2018-10-06T14:09:51.206Z,45.09
2018-10-06T14:12:19.688Z,42.47
2018-10-06T14:14:48.150Z,45.10
2018-10-06T14:17:16.589Z,41.01
2018-10-06T14:19:45.023Z,41.81
2018-10-06T14:22:13.505Z,43.18
2018-10-06T14:24:42.673Z,39.69
2018-10-06T14:27:11.133Z,40.98
2018-10-06T14:29:40.646Z,41.99
2018-10-06T14:32:09.074Z,42.48
2018-10-06T14:34:37.462Z,41.31
2018-10-06T14:37:05.973Z,43.01
2018-10-06T14:39:39.426Z,43.37
2018-10-06T14:42:08.124Z,43.15
2018-10-06T14:44:36.545Z,42.68
2018-10-06T14:47:05.006Z,42.81
2018-10-06T14:49:33.380Z,44.28
2018-10-06T14:52:01.769Z,44.55
2018-10-06T14:54:30.175Z,45.11
2018-10-06T14:56:59.158Z,46.09
2018-10-06T14:59:27.505Z,47.49
2018-10-06T15:01:55.920Z,46.83
2018-10-06T15:04:24.364Z,46.82
2018-10-06T15:06:52.797Z,50.09
2018-10-06T15:09:21.182Z,50.30
2018-10-06T15:11:49.613Z,50.69
2018-10-06T15:14:18.121Z,50.59
2018-10-06T15:16:46.600Z,49.65
2018-10-06T15:19:15.034Z,51.61
2018-10-06T15:21:43.463Z,49.71
2018-10-06T15:24:11.838Z,51.23
2018-10-06T15:26:40.305Z,50.14
2018-10-06T15:29:08.726Z,49.77
2018-10-06T15:31:37.260Z,50.21
2018-10-06T15:34:05.697Z,50.37
2018-10-06T15:36:34.187Z,51.50
2018-10-06T15:39:02.608Z,49.91
2018-10-06T15:41:31.025Z,51.09
2018-10-06T15:43:59.438Z,49.40
2018-10-06T15:46:29.219Z,49.52
2018-10-06T15:48:58.022Z,49.31
2018-10-06T15:51:26.775Z,52.96
2018-10-06T15:53:55.265Z,50.92
2018-10-06T15:56:23.813Z,53.60
2018-10-06T15:58:52.237Z,54.07
2018-10-06T16:01:21.064Z,55.52
2018-10-06T16:03:49.499Z,59.87
2018-10-06T16:06:17.995Z,61.09
2018-10-06T16:08:46.497Z,64.75
2018-10-06T16:11:14.937Z,64.53
2018-10-06T16:13:43.463Z,68.16
2018-10-06T16:16:11.900Z,69.50
2018-10-06T16:18:40.371Z,70.34
2018-10-06T16:21:08.869Z,69.75
2018-10-06T16:23:37.463Z,72.09
2018-10-06T16:26:05.849Z,74.24
2018-10-06T16:28:34.221Z,76.48
2018-10-06T16:31:02.649Z,78.73
2018-10-06T16:33:31.143Z,78.26
2018-10-06T16:35:59.490Z,77.82
2018-10-06T16:38:27.930Z,78.11
2018-10-06T16:40:56.359Z,78.35
2018-10-06T16:43:24.775Z,81.93
2018-10-06T16:45:53.250Z,83.63
2018-10-06T16:48:28.017Z,84.59
2018-10-06T16:50:56.400Z,87.20
2018-10-06T16:53:24.795Z,89.95
2018-10-06T16:55:53.201Z,93.82
2018-10-06T16:58:21.669Z,93.26
2018-10-06T17:00:50.104Z,94.11
2018-10-06T17:03:18.547Z,97.45
2018-10-06T17:05:47.029Z,99.17
2018-10-06T17:08:15.442Z,100.00
2018-10-06T17:10:43.866Z,100.00
2018-10-06T17:13:12.272Z,100.00
2018-10-06T17:15:40.703Z,100.00
2018-10-06T17:18:09.149Z,100.00
2018-10-06T17:20:37.578Z,100.00
2018-10-06T17:23:06.057Z,100.00
2018-10-06T17:25:34.448Z,100.00
2018-10-06T17:28:02.911Z,100.00
2018-10-06T17:30:31.357Z,100.00
2018-10-06T17:32:59.822Z,100.00
2018-10-06T17:35:28.250Z,100.00
2018-10-06T17:37:56.710Z,100.00
2018-10-06T17:40:25.127Z,100.00
2018-10-06T17:42:53.542Z,100.00
2018-10-06T17:45:22.000Z,100.00
2018-10-06T17:47:50.425Z,100.00
2018-10-06T17:50:18.919Z,100.00
2018-10-06T17:52:47.271Z,100.00
2018-10-06T17:55:15.694Z,100.00
2018-10-06T17:57:44.199Z,100.00
2018-10-06T18:00:12.701Z,100.00
2018-10-06T18:02:41.171Z,100.00
2018-10-06T18:05:09.603Z,100.00
2018-10-06T18:07:38.038Z,100.00
2018-10-06T18:10:06.502Z,100.00
2018-10-06T18:12:34.948Z,100.00
2018-10-06T18:15:03.377Z,100.00
2018-10-06T18:17:31.814Z,100.00
2018-10-06T18:20:00.221Z,100.00
2018-10-06T18:22:28.766Z,100.00
2018-10-06T18:24:57.161Z,100.00
2018-10-06T18:27:25.576Z,100.00
2018-10-06T18:29:54.191Z,100.00
2018-10-06T18:32:22.597Z,100.00
2018-10-06T18:34:50.989Z,100.00
2018-10-06T18:37:19.649Z,100.00
2018-10-06T18:39:48.791Z,100.00
2018-10-06T18:42:17.318Z,100.00
2018-10-06T18:44:45.752Z,100.00
2018-10-06T18:47:14.194Z,100.00
2018-10-06T18:49:42.609Z,100.00
2018-10-06T18:52:11.053Z,100.00
2018-10-06T18:54:39.688Z,100.00
2018-10-06T18:57:08.271Z,100.00
2018-10-06T18:59:36.714Z,100.00
2018-10-06T19:02:05.137Z,100.00
2018-10-06T19:04:34.598Z,100.00
2018-10-06T19:07:03.002Z,100.00
2018-10-06T19:09:31.563Z,100.00
2018-10-06T19:11:59.965Z,100.00
2018-10-06T19:14:28.564Z,100.00
2018-10-06T19:16:57.037Z,100.00
2018-10-06T19:19:25.561Z,100.00
2018-10-06T19:21:54.163Z,100.00
2018-10-06T19:24:22.589Z,100.00
2018-10-06T19:26:51.469Z,100.00
2018-10-06T19:29:19.887Z,100.00
2018-10-06T19:31:48.585Z,100.00
2018-10-06T19:34:17.078Z,100.00
2018-10-06T19:36:45.592Z,100.00
2018-10-06T19:39:20.776Z,100.00
2018-10-06T19:41:51.859Z,100.00
2018-10-06T19:44:20.415Z,100.00
2018-10-06T19:46:52.736Z,100.00
2018-10-06T19:49:22.570Z,100.00
2018-10-06T19:51:51.038Z,100.00
2018-10-06T19:54:20.157Z,100.00
2018-10-06T19:56:48.588Z,100.00
2018-10-06T19:59:17.039Z,100.00
2018-10-06T20:01:45.495Z,100.00
2018-10-06T20:04:13.965Z,100.00
2018-10-06T20:06:42.381Z,100.00
2018-10-06T20:09:11.570Z,100.00
2018-10-06T20:11:40.046Z,100.00
2018-10-06T20:14:08.764Z,100.00
2018-10-06T20:16:38.398Z,100.00
2018-10-06T20:19:06.972Z,100.00
2018-10-06T20:21:35.725Z,100.00
2018-10-06T20:24:04.206Z,100.00
2018-10-06T20:26:32.615Z,100.00
2018-10-06T20:29:01.059Z,100.00
2018-10-06T20:31:29.514Z,100.00
2018-10-06T20:33:57.998Z,100.00
2018-10-06T20:36:26.482Z,100.00
2018-10-06T20:38:54.917Z,100.00
2018-10-06T20:41:23.341Z,100.00
2018-10-06T20:43:51.832Z,100.00
2018-10-06T20:46:20.350Z,100.00
2018-10-06T20:48:48.747Z,100.00
2018-10-06T20:51:17.129Z,100.00
2018-10-06T20:53:45.602Z,100.00
2018-10-06T20:56:14.034Z,100.00
2018-10-06T20:58:42.885Z,100.00
2018-10-06T21:01:11.319Z,100.00
2018-10-06T21:03:40.092Z,100.00
2018-10-06T21:06:08.525Z,100.00
2018-10-06T21:08:36.983Z,100.00
2018-10-06T21:11:05.470Z,100.00
2018-10-06T21:13:33.960Z,100.00
2018-10-06T21:16:02.421Z,100.00
2018-10-06T21:18:30.989Z,100.00
2018-10-06T21:20:59.350Z,100.00
2018-10-06T21:23:27.760Z,100.00
2018-10-06T21:25:56.197Z,100.00
2018-10-06T21:28:24.673Z,100.00
2018-10-06T21:30:53.119Z,100.00
2018-10-06T21:33:21.525Z,100.00
2018-10-06T21:35:49.995Z,100.00
2018-10-06T21:38:18.466Z,100.00
2018-10-06T21:40:46.929Z,100.00
2018-10-06T21:43:15.352Z,100.00
2018-10-06T21:45:44.165Z,100.00
2018-10-06T21:48:12.613Z,100.00
2018-10-06T21:50:41.070Z,100.00
2018-10-06T21:53:09.476Z,100.00
2018-10-06T21:55:37.890Z,100.00
2018-10-06T21:58:06.366Z,100.00
2018-10-06T22:00:34.890Z,100.00
2018-10-06T22:03:03.337Z,100.00
2018-10-06T22:05:31.869Z,100.00
2018-10-06T22:08:00.345Z,100.00
2018-10-06T22:10:28.805Z,100.00
2018-10-06T22:12:57.261Z,100.00
2018-10-06T22:15:25.697Z,100.00
2018-10-06T22:17:54.169Z,100.00
2018-10-06T22:20:22.620Z,100.00
2018-10-06T22:22:51.115Z,100.00
2018-10-06T22:25:19.605Z,100.00
2018-10-06T22:27:48.263Z,100.00
2018-10-06T22:30:16.693Z,100.00
2018-10-06T22:32:45.090Z,100.00
2018-10-06T22:35:13.526Z,100.00
2018-10-06T22:37:41.925Z,100.00
2018-10-06T22:40:10.329Z,100.00
2018-10-06T22:42:38.763Z,100.00
2018-10-06T22:45:07.442Z,100.00
2018-10-06T22:47:36.094Z,100.00
2018-10-06T22:50:05.123Z,100.00
2018-10-06T22:52:33.541Z,100.00
2018-10-06T22:55:02.067Z,100.00
2018-10-06T22:57:30.470Z,100.00
2018-10-06T22:59:58.984Z,100.00
2018-10-06T23:02:27.405Z,100.00
2018-10-06T23:04:55.885Z,100.00
2018-10-06T23:07:24.291Z,100.00
2018-10-06T23:09:52.705Z,100.00
2018-10-06T23:12:21.105Z,100.00
2018-10-06T23:14:49.653Z,100.00
2018-10-06T23:17:18.055Z,100.00
2018-10-06T23:19:46.578Z,100.00
2018-10-06T23:22:15.014Z,100.00
2018-10-06T23:24:43.459Z,100.00
2018-10-06T23:27:11.878Z,100.00
2018-10-06T23:29:40.318Z,100.00
2018-10-06T23:32:08.736Z,100.00
2018-10-06T23:34:37.134Z,100.00
2018-10-06T23:37:05.570Z,100.00
2018-10-06T23:39:34.009Z,100.00
2018-10-06T23:42:02.629Z,100.00
2018-10-06T23:44:31.037Z,100.00
2018-10-06T23:46:59.486Z,100.00
2018-10-06T23:49:27.910Z,100.00
2018-10-06T23:51:56.317Z,100.00
2018-10-06T23:54:24.716Z,100.00
2018-10-06T23:56:53.138Z,100.00
2018-10-06T23:59:21.522Z,100.00
